AAL1583 KMIA-TAPA
Flight info
| Callsign | AAL1583 |
|---|---|
| Flight time | 2h 36m |
| Altitude | 37000 |
| Route | KLADA2 BITAC DCT LEPAS A555 DDP DCT COY G633 DANDE Y280 GABAR UG633 ANU |
| Aircraft | B738/M-SDE2E3FGHIRWXY/LB1 |
Departure
| Time | 2026-04-20 20:14 |
|---|---|
| Airport | Miami International Airport (KMIA) |
Arrival
| Time | 2026-04-20 22:50 |
|---|---|
| Airport | V. C. Bird International Airport (TAPA) |
| Time | Latitude | Longitude | Altitude | Speed | Heading |
|---|---|---|---|---|---|
| 2026-04-20 19:22 | 25.79805 | -80.27125 | 14 ft | 0 kts | 306° |
| 2026-04-20 20:04 | 25.79803 | -80.27123 | 14 ft | 2 kts | 306° |
| 2026-04-20 20:04 | 25.79794 | -80.27109 | 14 ft | 2 kts | 306° |
| 2026-04-20 20:04 | 25.79785 | -80.27095 | 14 ft | 2 kts | 322° |
| 2026-04-20 20:04 | 25.79771 | -80.27089 | 14 ft | 2 kts | 357° |
| 2026-04-20 20:05 | 25.79756 | -80.27092 | 14 ft | 2 kts | 31° |
| 2026-04-20 20:05 | 25.79746 | -80.27103 | 14 ft | 2 kts | 55° |
| 2026-04-20 20:05 | 25.79738 | -80.27118 | 14 ft | 2 kts | 69° |
| 2026-04-20 20:05 | 25.79734 | -80.27134 | 14 ft | 2 kts | 85° |
| 2026-04-20 20:06 | 25.79734 | -80.27151 | 14 ft | 2 kts | 89° |
| 2026-04-20 20:06 | 25.79733 | -80.27167 | 14 ft | 1 kts | 88° |
| 2026-04-20 20:06 | 25.79733 | -80.27171 | 14 ft | 0 kts | 88° |
| 2026-04-20 20:07 | 25.79734 | -80.27159 | 14 ft | 5 kts | 87° |
| 2026-04-20 20:07 | 25.79764 | -80.27085 | 14 ft | 12 kts | 46° |
| 2026-04-20 20:07 | 25.79826 | -80.27023 | 14 ft | 11 kts | 36° |
| 2026-04-20 20:08 | 25.79899 | -80.26983 | 14 ft | 11 kts | 24° |
| 2026-04-20 20:08 | 25.79969 | -80.26977 | 14 ft | 6 kts | 324° |
| 2026-04-20 20:08 | 25.79993 | -80.27030 | 14 ft | 11 kts | 296° |
| 2026-04-20 20:08 | 25.80049 | -80.27096 | 14 ft | 8 kts | 334° |
| 2026-04-20 20:09 | 25.80082 | -80.27115 | 14 ft | 0 kts | 328° |
| 2026-04-20 20:09 | 25.80084 | -80.27121 | 14 ft | 4 kts | 282° |
| 2026-04-20 20:09 | 25.80082 | -80.27224 | 14 ft | 17 kts | 269° |
| 2026-04-20 20:09 | 25.80077 | -80.27357 | 14 ft | 17 kts | 266° |
| 2026-04-20 20:10 | 25.80066 | -80.27572 | 14 ft | 54 kts | 268° |
| 2026-04-20 20:10 | 25.80041 | -80.28136 | 14 ft | 53 kts | 268° |
| 2026-04-20 20:10 | 25.80036 | -80.28406 | 14 ft | 33 kts | 269° |
| 2026-04-20 20:10 | 25.80016 | -80.28693 | 14 ft | 36 kts | 267° |
| 2026-04-20 20:11 | 25.80006 | -80.29007 | 14 ft | 43 kts | 268° |
| 2026-04-20 20:11 | 25.79993 | -80.29333 | 14 ft | 28 kts | 268° |
| 2026-04-20 20:11 | 25.79988 | -80.29485 | 14 ft | 30 kts | 268° |
| 2026-04-20 20:11 | 25.79975 | -80.29814 | 14 ft | 33 kts | 267° |
| 2026-04-20 20:12 | 25.79974 | -80.29955 | 14 ft | 10 kts | 285° |
| 2026-04-20 20:12 | 25.79996 | -80.30038 | 14 ft | 13 kts | 286° |
| 2026-04-20 20:12 | 25.80048 | -80.30120 | 14 ft | 10 kts | 5° |
| 2026-04-20 20:13 | 25.80078 | -80.29983 | 14 ft | 42 kts | 87° |
| 2026-04-20 20:13 | 25.80105 | -80.29382 | 14 ft | 110 kts | 87° |
| 2026-04-20 20:13 | 25.80144 | -80.28309 | 20 ft | 164 kts | 86° |
| 2026-04-20 20:13 | 25.80237 | -80.26990 | 376 ft | 179 kts | 92° |
| 2026-04-20 20:14 | 25.80170 | -80.25653 | 1196 ft | 169 kts | 91° |
| 2026-04-20 20:14 | 25.79837 | -80.24406 | 1904 ft | 174 kts | 113° |
| 2026-04-20 20:14 | 25.79219 | -80.23235 | 2408 ft | 178 kts | 115° |
| 2026-04-20 20:14 | 25.78623 | -80.22028 | 2916 ft | 181 kts | 113° |
| 2026-04-20 20:15 | 25.78042 | -80.20737 | 3291 ft | 193 kts | 112° |
| 2026-04-20 20:15 | 25.77435 | -80.19384 | 3752 ft | 199 kts | 113° |
| 2026-04-20 20:15 | 25.76796 | -80.17994 | 4242 ft | 206 kts | 113° |
| 2026-04-20 20:15 | 25.76099 | -80.16533 | 4522 ft | 224 kts | 115° |
| 2026-04-20 20:16 | 25.75322 | -80.14982 | 4885 ft | 237 kts | 116° |
| 2026-04-20 20:16 | 25.74480 | -80.13309 | 5163 ft | 258 kts | 117° |
| 2026-04-20 20:16 | 25.73602 | -80.11534 | 5615 ft | 271 kts | 115° |
| 2026-04-20 20:16 | 25.72815 | -80.09563 | 6066 ft | 284 kts | 110° |
| 2026-04-20 20:17 | 25.72156 | -80.07562 | 7144 ft | 270 kts | 108° |
| 2026-04-20 20:17 | 25.71526 | -80.05570 | 7567 ft | 286 kts | 108° |
| 2026-04-20 20:17 | 25.70840 | -80.03425 | 8066 ft | 297 kts | 109° |
| 2026-04-20 20:17 | 25.70427 | -80.02158 | 8547 ft | 298 kts | 109° |
| 2026-04-20 20:18 | 25.69846 | -80.00402 | 9187 ft | 300 kts | 110° |
| 2026-04-20 20:18 | 25.69128 | -79.98241 | 9909 ft | 304 kts | 110° |
| 2026-04-20 20:18 | 25.68387 | -79.96021 | 10543 ft | 312 kts | 110° |
| 2026-04-20 20:18 | 25.67619 | -79.93713 | 10877 ft | 329 kts | 110° |
| 2026-04-20 20:19 | 25.66808 | -79.91277 | 11264 ft | 345 kts | 110° |
| 2026-04-20 20:19 | 25.65955 | -79.88714 | 11613 ft | 361 kts | 110° |
| 2026-04-20 20:19 | 25.65074 | -79.86069 | 12199 ft | 369 kts | 110° |
| 2026-04-20 20:19 | 25.64184 | -79.83399 | 12888 ft | 373 kts | 110° |
| 2026-04-20 20:20 | 25.63278 | -79.80682 | 13502 ft | 380 kts | 110° |
| 2026-04-20 20:20 | 25.62366 | -79.77946 | 14156 ft | 385 kts | 110° |
| 2026-04-20 20:20 | 25.61435 | -79.75156 | 14815 ft | 390 kts | 110° |
| 2026-04-20 20:20 | 25.60486 | -79.72313 | 15507 ft | 395 kts | 111° |
| 2026-04-20 20:21 | 25.59525 | -79.69444 | 16155 ft | 400 kts | 111° |
| 2026-04-20 20:21 | 25.58523 | -79.66574 | 16790 ft | 405 kts | 112° |
| 2026-04-20 20:21 | 25.57466 | -79.63678 | 17421 ft | 409 kts | 113° |
| 2026-04-20 20:21 | 25.56380 | -79.60760 | 18060 ft | 413 kts | 113° |
| 2026-04-20 20:22 | 25.55282 | -79.57812 | 18648 ft | 418 kts | 113° |
| 2026-04-20 20:22 | 25.54184 | -79.54846 | 19206 ft | 423 kts | 113° |
| 2026-04-20 20:22 | 25.53066 | -79.51814 | 19820 ft | 426 kts | 113° |
| 2026-04-20 20:22 | 25.51952 | -79.48781 | 20451 ft | 429 kts | 113° |
| 2026-04-20 20:23 | 25.50823 | -79.45706 | 20991 ft | 433 kts | 113° |
| 2026-04-20 20:23 | 25.49686 | -79.42612 | 21547 ft | 437 kts | 113° |
| 2026-04-20 20:23 | 25.48541 | -79.39497 | 22054 ft | 441 kts | 113° |
| 2026-04-20 20:23 | 25.47381 | -79.36343 | 22580 ft | 445 kts | 113° |
| 2026-04-20 20:24 | 25.46208 | -79.33154 | 23051 ft | 450 kts | 113° |
| 2026-04-20 20:24 | 25.45018 | -79.29923 | 23522 ft | 454 kts | 113° |
| 2026-04-20 20:24 | 25.43832 | -79.26702 | 23976 ft | 458 kts | 114° |
| 2026-04-20 20:24 | 25.42622 | -79.23419 | 24460 ft | 461 kts | 114° |
| 2026-04-20 20:25 | 25.41405 | -79.20120 | 24886 ft | 466 kts | 114° |
| 2026-04-20 20:25 | 25.40177 | -79.16794 | 25311 ft | 470 kts | 114° |
| 2026-04-20 20:25 | 25.38930 | -79.13420 | 25706 ft | 475 kts | 114° |
| 2026-04-20 20:25 | 25.37695 | -79.10081 | 26181 ft | 477 kts | 114° |
| 2026-04-20 20:26 | 25.36424 | -79.06648 | 26521 ft | 483 kts | 114° |
| 2026-04-20 20:26 | 25.35147 | -79.03204 | 26963 ft | 485 kts | 114° |
| 2026-04-20 20:26 | 25.33873 | -78.99770 | 27374 ft | 488 kts | 114° |
| 2026-04-20 20:26 | 25.32569 | -78.96257 | 27761 ft | 492 kts | 114° |
| 2026-04-20 20:27 | 25.31273 | -78.92766 | 28108 ft | 496 kts | 114° |
| 2026-04-20 20:27 | 25.29953 | -78.89212 | 28491 ft | 500 kts | 114° |
| 2026-04-20 20:27 | 25.28639 | -78.85677 | 28879 ft | 502 kts | 114° |
| 2026-04-20 20:27 | 25.27304 | -78.82086 | 29192 ft | 507 kts | 114° |
| 2026-04-20 20:28 | 25.25958 | -78.78471 | 29515 ft | 511 kts | 114° |
| 2026-04-20 20:28 | 25.24603 | -78.74831 | 29868 ft | 514 kts | 114° |
| 2026-04-20 20:28 | 25.23258 | -78.71223 | 30324 ft | 514 kts | 114° |
| 2026-04-20 20:28 | 25.21887 | -78.67551 | 30837 ft | 513 kts | 114° |
| 2026-04-20 20:29 | 25.20531 | -78.63921 | 31294 ft | 513 kts | 114° |
| 2026-04-20 20:29 | 25.19165 | -78.60259 | 31683 ft | 514 kts | 114° |
| 2026-04-20 20:29 | 25.17796 | -78.56606 | 32055 ft | 516 kts | 114° |
| 2026-04-20 20:29 | 25.16375 | -78.52942 | 32394 ft | 518 kts | 115° |
| 2026-04-20 20:30 | 25.14901 | -78.49302 | 32760 ft | 519 kts | 115° |
| 2026-04-20 20:30 | 25.13394 | -78.45665 | 33114 ft | 520 kts | 116° |
| 2026-04-20 20:30 | 25.11885 | -78.42060 | 33498 ft | 521 kts | 116° |
| 2026-04-20 20:30 | 25.10366 | -78.38432 | 33924 ft | 520 kts | 116° |
| 2026-04-20 20:31 | 25.08851 | -78.34800 | 34372 ft | 519 kts | 116° |
| 2026-04-20 20:31 | 25.07359 | -78.31210 | 34895 ft | 516 kts | 116° |
| 2026-04-20 20:31 | 25.05862 | -78.27602 | 35363 ft | 513 kts | 116° |
| 2026-04-20 20:31 | 25.04394 | -78.24056 | 35766 ft | 512 kts | 116° |
| 2026-04-20 20:32 | 25.02929 | -78.20509 | 36071 ft | 512 kts | 116° |
| 2026-04-20 20:32 | 25.01447 | -78.16920 | 36367 ft | 513 kts | 116° |
| 2026-04-20 20:32 | 24.99980 | -78.13364 | 36660 ft | 513 kts | 116° |
| 2026-04-20 20:32 | 24.98493 | -78.09766 | 36949 ft | 513 kts | 116° |
| 2026-04-20 20:33 | 24.95528 | -78.02602 | 37049 ft | 517 kts | 116° |
| 2026-04-20 20:33 | 24.92561 | -77.95435 | 37049 ft | 512 kts | 116° |
| 2026-04-20 20:34 | 24.89605 | -77.88328 | 37050 ft | 511 kts | 116° |
| 2026-04-20 20:34 | 24.86642 | -77.81210 | 37050 ft | 512 kts | 116° |
| 2026-04-20 20:35 | 24.83685 | -77.74090 | 37056 ft | 510 kts | 115° |
| 2026-04-20 20:35 | 24.80734 | -77.66988 | 37174 ft | 508 kts | 115° |
| 2026-04-20 20:36 | 24.79279 | -77.63494 | 37873 ft | 495 kts | 116° |
| 2026-04-20 20:36 | 24.77857 | -77.60091 | 38435 ft | 487 kts | 116° |
| 2026-04-20 20:36 | 24.76540 | -77.56664 | 38201 ft | 498 kts | 110° |
| 2026-04-20 20:36 | 24.75526 | -77.52944 | 37712 ft | 510 kts | 100° |
| 2026-04-20 20:37 | 24.75005 | -77.49075 | 37252 ft | 515 kts | 93° |
| 2026-04-20 20:37 | 24.74767 | -77.45211 | 37069 ft | 507 kts | 89° |
| 2026-04-20 20:37 | 24.74643 | -77.37539 | 37046 ft | 502 kts | 87° |
| 2026-04-20 20:38 | 24.74613 | -77.29801 | 37046 ft | 509 kts | 88° |
| 2026-04-20 20:38 | 24.74520 | -77.21997 | 37042 ft | 509 kts | 89° |
| 2026-04-20 20:39 | 24.74372 | -77.14264 | 37045 ft | 508 kts | 89° |
| 2026-04-20 20:39 | 24.74053 | -77.06499 | 37042 ft | 511 kts | 96° |
| 2026-04-20 20:40 | 24.73312 | -77.02708 | 37045 ft | 511 kts | 107° |
| 2026-04-20 20:40 | 24.72047 | -76.99061 | 37047 ft | 510 kts | 116° |
| 2026-04-20 20:40 | 24.68604 | -76.92310 | 37045 ft | 507 kts | 125° |
| 2026-04-20 20:41 | 24.64553 | -76.85950 | 37046 ft | 506 kts | 129° |
| 2026-04-20 20:41 | 24.60388 | -76.79767 | 37043 ft | 505 kts | 129° |
| 2026-04-20 20:42 | 24.56201 | -76.73528 | 37042 ft | 504 kts | 129° |
| 2026-04-20 20:42 | 24.52064 | -76.67321 | 37041 ft | 505 kts | 129° |
| 2026-04-20 20:43 | 24.47958 | -76.61105 | 37042 ft | 504 kts | 128° |
| 2026-04-20 20:43 | 24.43859 | -76.54886 | 37037 ft | 502 kts | 128° |
| 2026-04-20 20:44 | 24.39766 | -76.48682 | 37039 ft | 504 kts | 128° |
| 2026-04-20 20:44 | 24.35650 | -76.42451 | 37038 ft | 502 kts | 128° |
| 2026-04-20 20:45 | 24.31549 | -76.36249 | 37035 ft | 503 kts | 128° |
| 2026-04-20 20:45 | 24.27422 | -76.30026 | 37035 ft | 502 kts | 129° |
| 2026-04-20 20:46 | 24.23334 | -76.23852 | 37034 ft | 502 kts | 128° |
| 2026-04-20 20:46 | 24.19229 | -76.17671 | 37032 ft | 502 kts | 128° |
| 2026-04-20 20:47 | 24.15115 | -76.11482 | 37033 ft | 503 kts | 129° |
| 2026-04-20 20:47 | 24.10992 | -76.05289 | 37032 ft | 503 kts | 128° |
| 2026-04-20 20:48 | 24.06875 | -75.99114 | 37031 ft | 504 kts | 128° |
| 2026-04-20 20:48 | 24.02725 | -75.92896 | 37030 ft | 502 kts | 129° |
| 2026-04-20 20:49 | 23.98647 | -75.86792 | 37030 ft | 501 kts | 128° |
| 2026-04-20 20:49 | 23.94505 | -75.80615 | 37027 ft | 501 kts | 128° |
| 2026-04-20 20:50 | 23.90411 | -75.74505 | 37021 ft | 500 kts | 128° |
| 2026-04-20 20:50 | 23.86305 | -75.68372 | 37021 ft | 499 kts | 128° |
| 2026-04-20 20:51 | 23.82195 | -75.62245 | 37026 ft | 501 kts | 128° |
| 2026-04-20 20:51 | 23.78084 | -75.56125 | 37026 ft | 498 kts | 128° |
| 2026-04-20 20:52 | 23.73974 | -75.50024 | 37023 ft | 498 kts | 128° |
| 2026-04-20 20:52 | 23.69854 | -75.43925 | 37023 ft | 499 kts | 128° |
| 2026-04-20 20:53 | 23.65748 | -75.37843 | 37021 ft | 497 kts | 128° |
| 2026-04-20 20:53 | 23.61645 | -75.31766 | 37021 ft | 497 kts | 128° |
| 2026-04-20 20:54 | 23.57664 | -75.25670 | 37022 ft | 496 kts | 124° |
| 2026-04-20 20:54 | 23.54177 | -75.19168 | 37020 ft | 498 kts | 120° |
| 2026-04-20 20:55 | 23.50909 | -75.12495 | 37018 ft | 498 kts | 118° |
| 2026-04-20 20:55 | 23.47670 | -75.05844 | 37019 ft | 497 kts | 119° |
| 2026-04-20 20:56 | 23.44390 | -74.99216 | 37017 ft | 497 kts | 120° |
| 2026-04-20 20:56 | 23.41072 | -74.92590 | 37018 ft | 498 kts | 119° |
| 2026-04-20 20:57 | 23.37765 | -74.86022 | 37015 ft | 497 kts | 119° |
| 2026-04-20 20:57 | 23.34432 | -74.79406 | 37016 ft | 497 kts | 120° |
| 2026-04-20 20:58 | 23.31104 | -74.72809 | 37014 ft | 497 kts | 119° |
| 2026-04-20 20:58 | 23.27773 | -74.66219 | 37013 ft | 497 kts | 119° |
| 2026-04-20 20:59 | 23.24455 | -74.59670 | 37013 ft | 497 kts | 120° |
| 2026-04-20 20:59 | 23.21112 | -74.53078 | 37011 ft | 497 kts | 120° |
| 2026-04-20 21:00 | 23.17777 | -74.46506 | 37010 ft | 496 kts | 120° |
| 2026-04-20 21:00 | 23.14441 | -74.39936 | 37011 ft | 496 kts | 119° |
| 2026-04-20 21:01 | 23.11094 | -74.33390 | 37008 ft | 496 kts | 120° |
| 2026-04-20 21:01 | 23.07739 | -74.26882 | 37009 ft | 495 kts | 120° |
| 2026-04-20 21:02 | 23.04365 | -74.20356 | 37012 ft | 495 kts | 120° |
| 2026-04-20 21:02 | 23.00992 | -74.13838 | 37021 ft | 495 kts | 120° |
| 2026-04-20 21:03 | 22.97619 | -74.07320 | 37027 ft | 495 kts | 120° |
| 2026-04-20 21:03 | 22.94242 | -74.00807 | 37029 ft | 496 kts | 120° |
| 2026-04-20 21:04 | 22.90842 | -73.94258 | 37026 ft | 495 kts | 120° |
| 2026-04-20 21:04 | 22.87476 | -73.87779 | 37027 ft | 495 kts | 120° |
| 2026-04-20 21:05 | 22.84103 | -73.81297 | 37019 ft | 495 kts | 120° |
| 2026-04-20 21:05 | 22.80697 | -73.74766 | 37021 ft | 495 kts | 121° |
| 2026-04-20 21:06 | 22.77317 | -73.68288 | 37020 ft | 494 kts | 121° |
| 2026-04-20 21:06 | 22.73949 | -73.61826 | 37011 ft | 495 kts | 121° |
| 2026-04-20 21:07 | 22.70553 | -73.55321 | 37011 ft | 494 kts | 121° |
| 2026-04-20 21:07 | 22.67183 | -73.48885 | 37008 ft | 493 kts | 121° |
| 2026-04-20 21:08 | 22.63781 | -73.42397 | 37004 ft | 495 kts | 121° |
| 2026-04-20 21:08 | 22.60382 | -73.35926 | 37004 ft | 494 kts | 120° |
| 2026-04-20 21:09 | 22.57004 | -73.29493 | 36998 ft | 494 kts | 121° |
| 2026-04-20 21:09 | 22.53590 | -73.23003 | 36998 ft | 494 kts | 121° |
| 2026-04-20 21:10 | 22.50191 | -73.16544 | 37000 ft | 494 kts | 121° |
| 2026-04-20 21:10 | 22.46797 | -73.10101 | 36997 ft | 493 kts | 121° |
| 2026-04-20 21:11 | 22.43405 | -73.03680 | 36999 ft | 494 kts | 121° |
| 2026-04-20 21:11 | 22.39992 | -72.97226 | 36993 ft | 494 kts | 121° |
| 2026-04-20 21:12 | 22.36575 | -72.90769 | 36990 ft | 494 kts | 121° |
| 2026-04-20 21:12 | 22.33168 | -72.84355 | 36995 ft | 494 kts | 121° |
| 2026-04-20 21:13 | 22.29736 | -72.77898 | 36993 ft | 495 kts | 121° |
| 2026-04-20 21:13 | 22.26332 | -72.71491 | 36989 ft | 494 kts | 121° |
| 2026-04-20 21:14 | 22.22925 | -72.65048 | 36991 ft | 494 kts | 120° |
| 2026-04-20 21:14 | 22.19693 | -72.58481 | 36992 ft | 496 kts | 118° |
| 2026-04-20 21:15 | 22.16557 | -72.51842 | 36990 ft | 496 kts | 117° |
| 2026-04-20 21:15 | 22.13424 | -72.45228 | 36987 ft | 495 kts | 118° |
| 2026-04-20 21:16 | 22.10187 | -72.38693 | 36988 ft | 495 kts | 120° |
| 2026-04-20 21:16 | 22.06798 | -72.32227 | 36983 ft | 494 kts | 121° |
| 2026-04-20 21:17 | 22.03400 | -72.25796 | 36990 ft | 495 kts | 121° |
| 2026-04-20 21:17 | 21.99991 | -72.19327 | 36984 ft | 495 kts | 120° |
| 2026-04-20 21:18 | 21.96607 | -72.12884 | 36989 ft | 496 kts | 120° |
| 2026-04-20 21:18 | 21.93208 | -72.06400 | 36986 ft | 494 kts | 120° |
| 2026-04-20 21:19 | 21.89832 | -71.99953 | 36987 ft | 494 kts | 120° |
| 2026-04-20 21:20 | 21.84786 | -71.90351 | 36989 ft | 493 kts | 120° |
| 2026-04-20 21:20 | 21.81386 | -71.83905 | 36983 ft | 493 kts | 120° |
| 2026-04-20 21:21 | 21.78014 | -71.77518 | 36987 ft | 492 kts | 120° |
| 2026-04-20 21:21 | 21.74621 | -71.71091 | 36985 ft | 493 kts | 120° |
| 2026-04-20 21:22 | 21.71260 | -71.64723 | 36982 ft | 491 kts | 120° |
| 2026-04-20 21:22 | 21.67894 | -71.58351 | 36980 ft | 491 kts | 119° |
| 2026-04-20 21:23 | 21.64517 | -71.51964 | 36983 ft | 492 kts | 120° |
| 2026-04-20 21:23 | 21.61160 | -71.45631 | 36982 ft | 489 kts | 120° |
| 2026-04-20 21:24 | 21.57782 | -71.39275 | 36979 ft | 490 kts | 119° |
| 2026-04-20 21:24 | 21.54405 | -71.32919 | 36979 ft | 488 kts | 120° |
| 2026-04-20 21:25 | 21.51043 | -71.26598 | 36979 ft | 488 kts | 120° |
| 2026-04-20 21:25 | 21.47671 | -71.20266 | 36977 ft | 488 kts | 120° |
| 2026-04-20 21:26 | 21.44300 | -71.13947 | 36980 ft | 488 kts | 120° |
| 2026-04-20 21:26 | 21.40772 | -71.07707 | 36975 ft | 488 kts | 123° |
| 2026-04-20 21:27 | 21.37049 | -71.01623 | 36974 ft | 488 kts | 124° |
| 2026-04-20 21:27 | 21.33304 | -70.95569 | 36978 ft | 487 kts | 124° |
| 2026-04-20 21:28 | 21.29591 | -70.89516 | 36983 ft | 487 kts | 123° |
| 2026-04-20 21:28 | 21.25872 | -70.83418 | 36986 ft | 486 kts | 123° |
| 2026-04-20 21:29 | 21.22195 | -70.77367 | 36993 ft | 486 kts | 123° |
| 2026-04-20 21:29 | 21.18503 | -70.71288 | 36994 ft | 487 kts | 123° |
| 2026-04-20 21:30 | 21.14835 | -70.65254 | 36989 ft | 483 kts | 123° |
| 2026-04-20 21:30 | 21.11159 | -70.59218 | 36991 ft | 484 kts | 123° |
| 2026-04-20 21:31 | 21.07470 | -70.53175 | 36988 ft | 485 kts | 123° |
| 2026-04-20 21:31 | 21.03778 | -70.47138 | 36984 ft | 484 kts | 123° |
| 2026-04-20 21:32 | 21.00099 | -70.41124 | 36988 ft | 484 kts | 123° |
| 2026-04-20 21:32 | 20.96397 | -70.35078 | 36984 ft | 483 kts | 123° |
| 2026-04-20 21:33 | 20.92721 | -70.29079 | 36987 ft | 482 kts | 123° |
| 2026-04-20 21:33 | 20.89053 | -70.23103 | 36983 ft | 483 kts | 123° |
| 2026-04-20 21:34 | 20.85362 | -70.17093 | 36984 ft | 484 kts | 123° |
| 2026-04-20 21:34 | 20.81660 | -70.11069 | 36984 ft | 484 kts | 123° |
| 2026-04-20 21:35 | 20.77985 | -70.05094 | 36981 ft | 482 kts | 123° |
| 2026-04-20 21:35 | 20.74296 | -69.99105 | 36983 ft | 483 kts | 123° |
| 2026-04-20 21:36 | 20.70595 | -69.93102 | 36981 ft | 482 kts | 123° |
| 2026-04-20 21:36 | 20.66905 | -69.87125 | 36982 ft | 483 kts | 123° |
| 2026-04-20 21:37 | 20.63186 | -69.81110 | 36983 ft | 483 kts | 123° |
| 2026-04-20 21:37 | 20.59498 | -69.75144 | 36984 ft | 482 kts | 123° |
| 2026-04-20 21:38 | 20.55781 | -69.69137 | 36985 ft | 482 kts | 123° |
| 2026-04-20 21:38 | 20.52076 | -69.63194 | 36987 ft | 481 kts | 123° |
| 2026-04-20 21:39 | 20.48349 | -69.57249 | 36988 ft | 485 kts | 124° |
| 2026-04-20 21:39 | 20.44607 | -69.51296 | 36990 ft | 482 kts | 124° |
| 2026-04-20 21:40 | 20.40870 | -69.45361 | 36993 ft | 480 kts | 124° |
| 2026-04-20 21:40 | 20.37155 | -69.39462 | 36995 ft | 482 kts | 124° |
| 2026-04-20 21:41 | 20.33413 | -69.33524 | 36994 ft | 480 kts | 124° |
| 2026-04-20 21:41 | 20.29706 | -69.27647 | 36993 ft | 480 kts | 124° |
| 2026-04-20 21:42 | 20.25962 | -69.21713 | 36994 ft | 480 kts | 124° |
| 2026-04-20 21:42 | 20.22254 | -69.15850 | 36992 ft | 479 kts | 124° |
| 2026-04-20 21:43 | 20.18509 | -69.09936 | 36989 ft | 479 kts | 124° |
| 2026-04-20 21:43 | 20.14805 | -69.04088 | 36991 ft | 478 kts | 124° |
| 2026-04-20 21:44 | 20.11076 | -68.98204 | 36991 ft | 478 kts | 124° |
| 2026-04-20 21:44 | 20.07339 | -68.92315 | 36992 ft | 478 kts | 124° |
| 2026-04-20 21:45 | 20.03631 | -68.86481 | 36990 ft | 477 kts | 124° |
| 2026-04-20 21:45 | 19.99890 | -68.80602 | 36992 ft | 478 kts | 124° |
| 2026-04-20 21:46 | 19.96211 | -68.74761 | 36992 ft | 478 kts | 124° |
| 2026-04-20 21:46 | 19.92513 | -68.68858 | 36994 ft | 478 kts | 124° |
| 2026-04-20 21:47 | 19.88831 | -68.62991 | 36992 ft | 478 kts | 124° |
| 2026-04-20 21:47 | 19.85123 | -68.57090 | 36997 ft | 478 kts | 124° |
| 2026-04-20 21:48 | 19.81428 | -68.51224 | 36997 ft | 478 kts | 124° |
| 2026-04-20 21:48 | 19.77735 | -68.45368 | 37000 ft | 479 kts | 124° |
| 2026-04-20 21:49 | 19.74026 | -68.39492 | 37004 ft | 478 kts | 124° |
| 2026-04-20 21:49 | 19.70325 | -68.33634 | 37002 ft | 478 kts | 124° |
| 2026-04-20 21:50 | 19.66604 | -68.27753 | 37003 ft | 480 kts | 124° |
| 2026-04-20 21:50 | 19.62900 | -68.21906 | 36999 ft | 479 kts | 124° |
| 2026-04-20 21:51 | 19.59180 | -68.16042 | 36992 ft | 477 kts | 124° |
| 2026-04-20 21:51 | 19.55446 | -68.10158 | 36989 ft | 479 kts | 124° |
| 2026-04-20 21:52 | 19.51738 | -68.04320 | 36989 ft | 479 kts | 124° |
| 2026-04-20 21:52 | 19.48008 | -67.98453 | 36991 ft | 478 kts | 124° |
| 2026-04-20 21:53 | 19.44304 | -67.92631 | 36997 ft | 478 kts | 124° |
| 2026-04-20 21:53 | 19.40568 | -67.86765 | 36996 ft | 479 kts | 124° |
| 2026-04-20 21:54 | 19.36870 | -67.80962 | 36993 ft | 477 kts | 124° |
| 2026-04-20 21:54 | 19.33143 | -67.75123 | 36993 ft | 477 kts | 124° |
| 2026-04-20 21:55 | 19.29413 | -67.69281 | 36989 ft | 478 kts | 124° |
| 2026-04-20 21:55 | 19.25682 | -67.63448 | 36989 ft | 479 kts | 124° |
| 2026-04-20 21:56 | 19.21937 | -67.57595 | 36993 ft | 477 kts | 124° |
| 2026-04-20 21:56 | 19.18212 | -67.51775 | 36991 ft | 478 kts | 124° |
| 2026-04-20 21:57 | 19.14481 | -67.45950 | 36991 ft | 477 kts | 124° |
| 2026-04-20 21:57 | 19.10764 | -67.40148 | 36989 ft | 478 kts | 124° |
| 2026-04-20 21:58 | 19.07007 | -67.34298 | 36987 ft | 479 kts | 125° |
| 2026-04-20 21:58 | 19.03269 | -67.28481 | 36990 ft | 478 kts | 125° |
| 2026-04-20 21:59 | 18.99554 | -67.22710 | 36984 ft | 477 kts | 125° |
| 2026-04-20 21:59 | 18.95822 | -67.16916 | 36977 ft | 478 kts | 125° |
| 2026-04-20 22:00 | 18.92068 | -67.11091 | 36981 ft | 478 kts | 125° |
| 2026-04-20 22:00 | 18.88329 | -67.05294 | 36986 ft | 479 kts | 125° |
| 2026-04-20 22:01 | 18.84575 | -66.99478 | 36983 ft | 479 kts | 125° |
| 2026-04-20 22:01 | 18.80809 | -66.93652 | 36984 ft | 479 kts | 125° |
| 2026-04-20 22:02 | 18.77077 | -66.87878 | 36986 ft | 477 kts | 125° |
| 2026-04-20 22:02 | 18.73322 | -66.82079 | 36984 ft | 478 kts | 125° |
| 2026-04-20 22:03 | 18.69558 | -66.76271 | 36984 ft | 479 kts | 125° |
| 2026-04-20 22:03 | 18.65789 | -66.70462 | 36987 ft | 483 kts | 125° |
| 2026-04-20 22:04 | 18.61956 | -66.64565 | 36983 ft | 488 kts | 125° |
| 2026-04-20 22:04 | 18.58143 | -66.58691 | 36982 ft | 478 kts | 125° |
| 2026-04-20 22:05 | 18.54398 | -66.52931 | 36987 ft | 477 kts | 125° |
| 2026-04-20 22:05 | 18.50650 | -66.47176 | 36986 ft | 479 kts | 125° |
| 2026-04-20 22:06 | 18.47000 | -66.41267 | 36989 ft | 479 kts | 120° |
| 2026-04-20 22:06 | 18.44010 | -66.34998 | 36999 ft | 479 kts | 114° |
| 2026-04-20 22:07 | 18.41298 | -66.28571 | 37010 ft | 479 kts | 114° |
| 2026-04-20 22:07 | 18.38636 | -66.22128 | 37018 ft | 480 kts | 114° |
| 2026-04-20 22:08 | 18.35962 | -66.15715 | 37020 ft | 480 kts | 114° |
| 2026-04-20 22:08 | 18.33240 | -66.09256 | 37017 ft | 479 kts | 114° |
| 2026-04-20 22:09 | 18.30540 | -66.02886 | 37010 ft | 478 kts | 114° |
| 2026-04-20 22:09 | 18.27805 | -65.96461 | 37005 ft | 480 kts | 114° |
| 2026-04-20 22:10 | 18.25080 | -65.90066 | 37012 ft | 479 kts | 114° |
| 2026-04-20 22:10 | 18.22348 | -65.83660 | 37016 ft | 480 kts | 114° |
| 2026-04-20 22:11 | 18.19619 | -65.77265 | 37019 ft | 480 kts | 114° |
| 2026-04-20 22:11 | 18.16891 | -65.70879 | 37013 ft | 479 kts | 114° |
| 2026-04-20 22:12 | 18.14164 | -65.64506 | 37004 ft | 479 kts | 114° |
| 2026-04-20 22:12 | 18.11422 | -65.58106 | 37000 ft | 479 kts | 114° |
| 2026-04-20 22:13 | 18.08677 | -65.51709 | 36989 ft | 478 kts | 114° |
| 2026-04-20 22:13 | 18.05944 | -65.45339 | 36989 ft | 479 kts | 114° |
| 2026-04-20 22:14 | 18.03197 | -65.38946 | 36990 ft | 479 kts | 114° |
| 2026-04-20 22:14 | 18.00477 | -65.32623 | 36987 ft | 478 kts | 114° |
| 2026-04-20 22:15 | 17.97730 | -65.26247 | 36988 ft | 479 kts | 114° |
| 2026-04-20 22:15 | 17.94988 | -65.19882 | 36989 ft | 478 kts | 114° |
| 2026-04-20 22:16 | 17.92237 | -65.13508 | 36991 ft | 478 kts | 114° |
| 2026-04-20 22:16 | 17.89492 | -65.07156 | 36987 ft | 478 kts | 114° |
| 2026-04-20 22:17 | 17.86731 | -65.00772 | 36992 ft | 479 kts | 114° |
| 2026-04-20 22:17 | 17.84000 | -64.94462 | 36993 ft | 477 kts | 114° |
| 2026-04-20 22:18 | 17.81247 | -64.88110 | 36997 ft | 477 kts | 114° |
| 2026-04-20 22:18 | 17.78485 | -64.81741 | 37004 ft | 478 kts | 114° |
| 2026-04-20 22:19 | 17.75721 | -64.75375 | 37006 ft | 478 kts | 114° |
| 2026-04-20 22:19 | 17.73270 | -64.68948 | 37010 ft | 478 kts | 107° |
| 2026-04-20 22:20 | 17.71535 | -64.62208 | 37003 ft | 477 kts | 102° |
| 2026-04-20 22:20 | 17.70088 | -64.55456 | 37000 ft | 476 kts | 101° |
| 2026-04-20 22:21 | 17.68662 | -64.48658 | 36993 ft | 476 kts | 101° |
| 2026-04-20 22:21 | 17.67212 | -64.41927 | 36994 ft | 477 kts | 102° |
| 2026-04-20 22:22 | 17.65723 | -64.35129 | 37001 ft | 478 kts | 102° |
| 2026-04-20 22:22 | 17.64226 | -64.28358 | 36999 ft | 477 kts | 102° |
| 2026-04-20 22:23 | 17.62726 | -64.21587 | 36997 ft | 476 kts | 102° |
| 2026-04-20 22:23 | 17.61222 | -64.14813 | 36999 ft | 477 kts | 102° |
| 2026-04-20 22:24 | 17.59716 | -64.08054 | 36999 ft | 478 kts | 102° |
| 2026-04-20 22:24 | 17.58195 | -64.01239 | 36998 ft | 477 kts | 102° |
| 2026-04-20 22:25 | 17.56681 | -63.94476 | 36781 ft | 473 kts | 102° |
| 2026-04-20 22:25 | 17.55932 | -63.91140 | 36316 ft | 469 kts | 102° |
| 2026-04-20 22:25 | 17.55195 | -63.87859 | 35717 ft | 467 kts | 102° |
| 2026-04-20 22:25 | 17.54452 | -63.84542 | 35243 ft | 463 kts | 102° |
| 2026-04-20 22:26 | 17.53724 | -63.81288 | 34720 ft | 460 kts | 102° |
| 2026-04-20 22:26 | 17.52991 | -63.78015 | 34170 ft | 457 kts | 102° |
| 2026-04-20 22:26 | 17.52271 | -63.74802 | 33618 ft | 455 kts | 102° |
| 2026-04-20 22:27 | 17.50831 | -63.68405 | 32536 ft | 450 kts | 102° |
| 2026-04-20 22:27 | 17.50116 | -63.65225 | 32001 ft | 449 kts | 102° |
| 2026-04-20 22:27 | 17.49399 | -63.62038 | 31456 ft | 447 kts | 102° |
| 2026-04-20 22:27 | 17.48680 | -63.58849 | 30890 ft | 446 kts | 101° |
| 2026-04-20 22:28 | 17.47970 | -63.55698 | 30342 ft | 444 kts | 101° |
| 2026-04-20 22:28 | 17.47268 | -63.52587 | 29805 ft | 442 kts | 101° |
| 2026-04-20 22:28 | 17.46558 | -63.49445 | 29246 ft | 441 kts | 101° |
| 2026-04-20 22:28 | 17.45855 | -63.46340 | 28706 ft | 439 kts | 101° |
| 2026-04-20 22:29 | 17.45152 | -63.43236 | 28164 ft | 437 kts | 101° |
| 2026-04-20 22:29 | 17.44445 | -63.40113 | 27608 ft | 435 kts | 101° |
| 2026-04-20 22:29 | 17.43755 | -63.37066 | 27068 ft | 433 kts | 101° |
| 2026-04-20 22:29 | 17.43061 | -63.33994 | 26521 ft | 431 kts | 101° |
| 2026-04-20 22:30 | 17.42368 | -63.30933 | 25982 ft | 428 kts | 102° |
| 2026-04-20 22:30 | 17.41680 | -63.27903 | 25446 ft | 426 kts | 101° |
| 2026-04-20 22:30 | 17.40992 | -63.24879 | 24907 ft | 423 kts | 102° |
| 2026-04-20 22:30 | 17.40316 | -63.21911 | 24377 ft | 421 kts | 102° |
| 2026-04-20 22:31 | 17.39642 | -63.18953 | 23852 ft | 418 kts | 102° |
| 2026-04-20 22:31 | 17.38965 | -63.15985 | 23334 ft | 416 kts | 102° |
| 2026-04-20 22:31 | 17.38294 | -63.13043 | 22809 ft | 413 kts | 102° |
| 2026-04-20 22:31 | 17.37633 | -63.10142 | 22301 ft | 411 kts | 102° |
| 2026-04-20 22:32 | 17.36975 | -63.07264 | 21815 ft | 409 kts | 102° |
| 2026-04-20 22:32 | 17.36316 | -63.04379 | 21308 ft | 407 kts | 102° |
| 2026-04-20 22:32 | 17.35654 | -63.01482 | 20778 ft | 406 kts | 101° |
| 2026-04-20 22:32 | 17.35008 | -62.98609 | 20265 ft | 404 kts | 100° |
| 2026-04-20 22:33 | 17.34425 | -62.95767 | 19754 ft | 401 kts | 99° |
| 2026-04-20 22:33 | 17.33874 | -62.92891 | 19233 ft | 399 kts | 98° |
| 2026-04-20 22:33 | 17.33349 | -62.90071 | 18740 ft | 396 kts | 98° |
| 2026-04-20 22:33 | 17.32828 | -62.87261 | 18236 ft | 393 kts | 98° |
| 2026-04-20 22:34 | 17.32304 | -62.84455 | 17727 ft | 389 kts | 98° |
| 2026-04-20 22:34 | 17.31783 | -62.81705 | 17238 ft | 386 kts | 98° |
| 2026-04-20 22:34 | 17.31258 | -62.78960 | 16746 ft | 383 kts | 98° |
| 2026-04-20 22:34 | 17.30733 | -62.76235 | 16257 ft | 379 kts | 99° |
| 2026-04-20 22:35 | 17.30211 | -62.73537 | 15771 ft | 376 kts | 99° |
| 2026-04-20 22:35 | 17.29698 | -62.70890 | 15297 ft | 372 kts | 99° |
| 2026-04-20 22:35 | 17.29185 | -62.68233 | 14819 ft | 369 kts | 99° |
| 2026-04-20 22:35 | 17.28679 | -62.65626 | 14345 ft | 365 kts | 99° |
| 2026-04-20 22:36 | 17.28177 | -62.63041 | 13879 ft | 353 kts | 99° |
| 2026-04-20 22:36 | 17.27694 | -62.60566 | 13436 ft | 342 kts | 100° |
| 2026-04-20 22:36 | 17.27224 | -62.58156 | 13002 ft | 331 kts | 99° |
| 2026-04-20 22:36 | 17.26772 | -62.55829 | 12582 ft | 321 kts | 100° |
| 2026-04-20 22:37 | 17.26334 | -62.53574 | 12174 ft | 312 kts | 100° |
| 2026-04-20 22:37 | 17.25911 | -62.51399 | 11785 ft | 303 kts | 99° |
| 2026-04-20 22:37 | 17.25493 | -62.49249 | 11393 ft | 295 kts | 100° |
| 2026-04-20 22:37 | 17.25090 | -62.47184 | 11021 ft | 287 kts | 100° |
| 2026-04-20 22:38 | 17.24697 | -62.45163 | 10666 ft | 280 kts | 99° |
| 2026-04-20 22:38 | 17.24307 | -62.43157 | 10295 ft | 280 kts | 100° |
| 2026-04-20 22:38 | 17.23918 | -62.41163 | 9969 ft | 279 kts | 99° |
| 2026-04-20 22:38 | 17.23533 | -62.39198 | 9736 ft | 274 kts | 100° |
| 2026-04-20 22:39 | 17.23149 | -62.37244 | 9337 ft | 275 kts | 99° |
| 2026-04-20 22:39 | 17.22765 | -62.35288 | 8996 ft | 273 kts | 100° |
| 2026-04-20 22:39 | 17.22388 | -62.33367 | 8660 ft | 272 kts | 100° |
| 2026-04-20 22:39 | 17.22010 | -62.31427 | 8314 ft | 271 kts | 100° |
| 2026-04-20 22:40 | 17.21632 | -62.29503 | 7973 ft | 270 kts | 101° |
| 2026-04-20 22:40 | 17.21259 | -62.27605 | 7800 ft | 261 kts | 101° |
| 2026-04-20 22:40 | 17.20900 | -62.25784 | 7727 ft | 249 kts | 100° |
| 2026-04-20 22:40 | 17.20554 | -62.24029 | 7649 ft | 238 kts | 100° |
| 2026-04-20 22:41 | 17.20100 | -62.22389 | 7511 ft | 232 kts | 113° |
| 2026-04-20 22:41 | 17.19287 | -62.20949 | 7252 ft | 232 kts | 123° |
| 2026-04-20 22:41 | 17.18332 | -62.19579 | 6987 ft | 230 kts | 123° |
| 2026-04-20 22:41 | 17.17403 | -62.18208 | 6734 ft | 228 kts | 122° |
| 2026-04-20 22:42 | 17.16517 | -62.16840 | 6490 ft | 226 kts | 121° |
| 2026-04-20 22:42 | 17.15648 | -62.15469 | 6240 ft | 224 kts | 121° |
| 2026-04-20 22:42 | 17.14791 | -62.14118 | 6004 ft | 223 kts | 121° |
| 2026-04-20 22:42 | 17.13934 | -62.12767 | 5756 ft | 223 kts | 121° |
| 2026-04-20 22:43 | 17.13069 | -62.11412 | 5513 ft | 221 kts | 121° |
| 2026-04-20 22:43 | 17.12223 | -62.10085 | 5275 ft | 219 kts | 121° |
| 2026-04-20 22:43 | 17.11376 | -62.08753 | 5033 ft | 219 kts | 121° |
| 2026-04-20 22:43 | 17.10537 | -62.07435 | 4785 ft | 218 kts | 121° |
| 2026-04-20 22:44 | 17.09699 | -62.06121 | 4546 ft | 216 kts | 121° |
| 2026-04-20 22:44 | 17.08864 | -62.04816 | 4310 ft | 215 kts | 121° |
| 2026-04-20 22:44 | 17.08032 | -62.03508 | 4080 ft | 213 kts | 121° |
| 2026-04-20 22:44 | 17.07199 | -62.02203 | 3832 ft | 213 kts | 120° |
| 2026-04-20 22:45 | 17.06378 | -62.00917 | 3589 ft | 212 kts | 120° |
| 2026-04-20 22:45 | 17.05561 | -61.99635 | 3361 ft | 211 kts | 120° |
| 2026-04-20 22:45 | 17.04750 | -61.98360 | 3182 ft | 206 kts | 118° |
| 2026-04-20 22:45 | 17.04109 | -61.97078 | 3030 ft | 194 kts | 103° |
| 2026-04-20 22:46 | 17.04091 | -61.95727 | 2891 ft | 182 kts | 72° |
| 2026-04-20 22:46 | 17.04626 | -61.94550 | 2776 ft | 180 kts | 59° |
| 2026-04-20 22:46 | 17.05306 | -61.93427 | 2633 ft | 182 kts | 59° |
| 2026-04-20 22:46 | 17.05973 | -61.92312 | 2458 ft | 176 kts | 60° |
| 2026-04-20 22:47 | 17.06597 | -61.91243 | 2267 ft | 167 kts | 61° |
| 2026-04-20 22:47 | 17.07200 | -61.90202 | 2069 ft | 169 kts | 59° |
| 2026-04-20 22:47 | 17.07825 | -61.89168 | 1970 ft | 168 kts | 59° |
| 2026-04-20 22:47 | 17.08419 | -61.88126 | 1793 ft | 163 kts | 60° |
| 2026-04-20 22:48 | 17.08997 | -61.87156 | 1523 ft | 154 kts | 57° |
| 2026-04-20 22:48 | 17.09527 | -61.86259 | 1420 ft | 132 kts | 60° |
| 2026-04-20 22:48 | 17.09997 | -61.85454 | 1199 ft | 131 kts | 61° |
| 2026-04-20 22:48 | 17.10493 | -61.84652 | 1034 ft | 134 kts | 60° |
| 2026-04-20 22:49 | 17.10974 | -61.83806 | 911 ft | 136 kts | 58° |
| 2026-04-20 22:49 | 17.11473 | -61.82951 | 725 ft | 140 kts | 59° |
| 2026-04-20 22:49 | 17.11990 | -61.82091 | 518 ft | 140 kts | 59° |
| 2026-04-20 22:49 | 17.12496 | -61.81245 | 334 ft | 135 kts | 60° |
| 2026-04-20 22:50 | 17.13000 | -61.80402 | 138 ft | 136 kts | 61° |
| 2026-04-20 22:50 | 17.13464 | -61.79607 | 61 ft | 109 kts | 59° |
| 2026-04-20 22:50 | 17.13748 | -61.79136 | 56 ft | 51 kts | 59° |
| 2026-04-20 22:50 | 17.13891 | -61.78891 | 50 ft | 35 kts | 59° |
| 2026-04-20 22:51 | 17.13988 | -61.78730 | 44 ft | 21 kts | 57° |
| 2026-04-20 22:51 | 17.14061 | -61.78650 | 41 ft | 11 kts | 6° |
| 2026-04-20 22:51 | 17.14099 | -61.78693 | 42 ft | 6 kts | 277° |
| 2026-04-20 22:51 | 17.14104 | -61.78767 | 45 ft | 13 kts | 274° |
| 2026-04-20 22:52 | 17.14101 | -61.78867 | 47 ft | 13 kts | 246° |
| 2026-04-20 22:52 | 17.14073 | -61.78919 | 49 ft | 7 kts | 238° |
| 2026-04-20 22:52 | 17.14046 | -61.78963 | 51 ft | 7 kts | 238° |
| 2026-04-20 22:52 | 17.14052 | -61.79005 | 52 ft | 6 kts | 321° |
| 2026-04-20 22:53 | 17.14085 | -61.79027 | 54 ft | 4 kts | 328° |
| 2026-04-20 22:53 | 17.14098 | -61.79035 | 54 ft | 0 kts | 328° |
| 2026-04-20 22:53 | 17.14099 | -61.79036 | 54 ft | 0 kts | 328° |